createdAt,value
2018-08-25T00:01:26.982Z,66.30
2018-08-25T00:03:55.174Z,66.20
2018-08-25T00:06:23.396Z,66.20
2018-08-25T00:08:51.593Z,66.20
2018-08-25T00:11:19.788Z,66.10
2018-08-25T00:13:47.967Z,65.80
2018-08-25T00:16:16.173Z,65.80
2018-08-25T00:18:44.459Z,65.80
2018-08-25T00:21:12.681Z,65.50
2018-08-25T00:23:41.089Z,65.50
2018-08-25T00:26:09.314Z,65.40
2018-08-25T00:28:37.584Z,64.90
2018-08-25T00:31:11.105Z,65.40
2018-08-25T00:33:39.346Z,65.60
2018-08-25T00:36:07.704Z,65.90
2018-08-25T00:38:35.907Z,66.10
2018-08-25T00:41:04.101Z,66.20
2018-08-25T00:43:32.301Z,66.40
2018-08-25T00:46:00.817Z,66.50
2018-08-25T00:48:29.047Z,66.90
2018-08-25T00:50:57.289Z,67.10
2018-08-25T00:53:25.529Z,67.90
2018-08-25T00:55:54.674Z,68.50
2018-08-25T00:58:22.936Z,68.60
2018-08-25T01:00:51.223Z,69.10
2018-08-25T01:03:19.404Z,69.60
2018-08-25T01:05:47.625Z,69.00
2018-08-25T01:08:15.875Z,69.20
2018-08-25T01:10:44.083Z,69.70
2018-08-25T01:13:12.297Z,69.50
2018-08-25T01:15:40.581Z,69.60
2018-08-25T01:18:08.803Z,70.50
2018-08-25T01:20:37.082Z,70.50
2018-08-25T01:23:05.351Z,70.80
2018-08-25T01:25:33.559Z,71.20
2018-08-25T01:28:01.834Z,71.80
2018-08-25T01:30:30.128Z,71.80
2018-08-25T01:32:58.344Z,72.00
2018-08-25T01:35:26.559Z,72.20
2018-08-25T01:37:54.884Z,72.50
2018-08-25T01:40:23.075Z,72.60
2018-08-25T01:42:51.275Z,73.00
2018-08-25T01:45:19.459Z,73.10
2018-08-25T01:47:47.657Z,73.00
2018-08-25T01:50:15.839Z,73.60
2018-08-25T01:52:44.028Z,73.50
2018-08-25T01:55:12.213Z,74.50
2018-08-25T01:57:40.431Z,74.00
2018-08-25T02:00:08.731Z,74.30
2018-08-25T02:02:36.957Z,74.80
2018-08-25T02:05:05.161Z,75.40
2018-08-25T02:07:33.701Z,75.60
2018-08-25T02:10:01.918Z,76.00
2018-08-25T02:12:30.275Z,76.50
2018-08-25T02:14:58.457Z,77.50
2018-08-25T02:17:26.639Z,78.00
2018-08-25T02:19:54.843Z,78.50
2018-08-25T02:22:23.025Z,79.10
2018-08-25T02:24:51.213Z,79.50
2018-08-25T02:27:19.432Z,80.00
2018-08-25T02:29:47.681Z,80.60
2018-08-25T02:32:15.873Z,81.30
2018-08-25T02:34:44.087Z,82.00
2018-08-25T02:37:12.324Z,82.60
2018-08-25T02:39:40.507Z,83.40
2018-08-25T02:42:08.703Z,84.00
2018-08-25T02:44:36.927Z,84.70
2018-08-25T02:47:05.233Z,85.30
2018-08-25T02:49:33.526Z,85.40
2018-08-25T02:52:01.790Z,85.70
2018-08-25T02:54:29.994Z,86.00
2018-08-25T02:56:58.188Z,86.00
2018-08-25T02:59:26.488Z,86.40
2018-08-25T03:01:54.752Z,86.70
2018-08-25T03:04:22.924Z,87.20
2018-08-25T03:06:51.135Z,87.40
2018-08-25T03:09:19.320Z,87.90
2018-08-25T03:11:47.534Z,88.50
2018-08-25T03:14:15.740Z,88.70
2018-08-25T03:16:43.929Z,89.00
2018-08-25T03:19:12.210Z,89.40
2018-08-25T03:21:40.402Z,90.00
2018-08-25T03:24:08.637Z,90.00
2018-08-25T03:26:36.826Z,90.00
2018-08-25T03:29:05.118Z,90.00
2018-08-25T03:31:33.306Z,90.00
2018-08-25T03:34:01.538Z,90.20
2018-08-25T03:36:29.737Z,90.20
2018-08-25T03:38:57.916Z,90.20
2018-08-25T03:41:26.103Z,90.40
2018-08-25T03:43:54.302Z,90.60
2018-08-25T03:46:22.496Z,90.70
2018-08-25T03:48:50.741Z,90.80
2018-08-25T03:51:18.942Z,90.80
2018-08-25T03:53:47.330Z,90.90
2018-08-25T03:56:15.510Z,91.10
2018-08-25T03:58:43.716Z,91.20
2018-08-25T04:01:12.028Z,91.40
2018-08-25T04:03:40.225Z,91.40
2018-08-25T04:06:08.426Z,91.60
2018-08-25T04:08:36.734Z,91.80
2018-08-25T04:11:05.046Z,92.00
2018-08-25T04:13:33.237Z,92.30
2018-08-25T04:16:01.442Z,92.30
2018-08-25T04:18:29.662Z,92.20
2018-08-25T04:20:57.844Z,92.30
2018-08-25T04:23:26.044Z,92.40
2018-08-25T04:25:54.258Z,92.40
2018-08-25T04:28:22.471Z,92.30
2018-08-25T04:30:50.693Z,92.30
2018-08-25T04:33:18.926Z,92.30
2018-08-25T04:35:47.102Z,92.40
2018-08-25T04:38:15.396Z,92.60
2018-08-25T04:40:43.646Z,92.50
2018-08-25T04:43:11.843Z,92.60
2018-08-25T04:45:40.070Z,92.70
2018-08-25T04:48:08.338Z,92.70
2018-08-25T04:50:36.528Z,92.40
2018-08-25T04:53:05.030Z,92.30
2018-08-25T04:55:33.239Z,92.20
2018-08-25T04:58:01.477Z,92.00
2018-08-25T05:00:29.671Z,92.00
2018-08-25T05:02:57.882Z,92.00
2018-08-25T05:05:26.087Z,92.00
2018-08-25T05:07:54.360Z,91.80
2018-08-25T05:10:22.546Z,91.70
2018-08-25T05:12:50.727Z,91.60
2018-08-25T05:15:18.933Z,91.60
2018-08-25T05:17:47.129Z,91.70
2018-08-25T05:20:15.389Z,91.50
2018-08-25T05:22:43.589Z,91.50
2018-08-25T05:25:11.789Z,91.40
2018-08-25T05:27:39.984Z,91.40
2018-08-25T05:30:08.442Z,91.30
2018-08-25T05:32:36.680Z,91.30
2018-08-25T05:35:05.437Z,91.20
2018-08-25T05:37:33.652Z,91.20
2018-08-25T05:40:01.879Z,91.00
2018-08-25T05:42:30.091Z,90.90
2018-08-25T05:44:58.273Z,90.90
2018-08-25T05:47:26.479Z,90.80
2018-08-25T05:49:54.703Z,90.80
2018-08-25T05:52:22.879Z,90.70
2018-08-25T05:54:51.105Z,90.60
2018-08-25T05:57:19.285Z,90.70
2018-08-25T05:59:47.478Z,90.70
2018-08-25T06:02:15.683Z,90.60
2018-08-25T06:04:43.874Z,90.60
2018-08-25T06:07:12.095Z,90.60
2018-08-25T06:09:40.283Z,90.70
2018-08-25T06:12:08.767Z,90.60
2018-08-25T06:14:36.949Z,90.90
2018-08-25T06:17:05.192Z,91.50
2018-08-25T06:19:33.403Z,92.00
2018-08-25T06:22:01.603Z,92.50
2018-08-25T06:24:29.817Z,92.80
2018-08-25T06:26:58.026Z,93.10
2018-08-25T06:29:26.225Z,93.60
2018-08-25T06:31:54.414Z,94.00
2018-08-25T06:34:22.621Z,94.30
2018-08-25T06:36:50.811Z,94.40
2018-08-25T06:39:18.993Z,94.90
2018-08-25T06:41:47.207Z,94.70
2018-08-25T06:44:15.396Z,94.70
2018-08-25T06:46:43.596Z,94.70
2018-08-25T06:49:11.828Z,94.50
2018-08-25T06:51:40.063Z,94.50
2018-08-25T06:54:08.297Z,94.60
2018-08-25T06:56:36.518Z,94.70
2018-08-25T06:59:04.745Z,94.70
2018-08-25T07:01:32.937Z,94.50
2018-08-25T07:04:01.465Z,94.80
2018-08-25T07:06:29.739Z,94.80
2018-08-25T07:08:58.022Z,95.20
2018-08-25T07:11:26.208Z,95.20
2018-08-25T07:13:54.415Z,95.00
2018-08-25T07:16:22.633Z,95.50
2018-08-25T07:18:50.862Z,95.80
2018-08-25T07:21:19.031Z,96.30
2018-08-25T07:23:47.239Z,96.90
2018-08-25T07:26:15.522Z,96.80
2018-08-25T07:28:43.681Z,97.10
2018-08-25T07:31:11.883Z,97.60
2018-08-25T07:33:40.117Z,97.90
2018-08-25T07:36:08.523Z,98.30
2018-08-25T07:38:36.795Z,98.90
2018-08-25T07:41:05.028Z,99.30
2018-08-25T07:43:33.201Z,99.40
2018-08-25T07:46:01.403Z,99.40
2018-08-25T07:48:29.655Z,99.60
2018-08-25T07:50:58.048Z,99.80
2018-08-25T07:53:26.231Z,99.90
2018-08-25T07:55:54.427Z,99.60
2018-08-25T07:58:22.733Z,99.90
2018-08-25T08:00:50.923Z,99.50
2018-08-25T08:03:19.131Z,99.50
2018-08-25T08:05:47.473Z,99.80
2018-08-25T08:08:15.732Z,99.90
2018-08-25T08:10:43.919Z,99.70
2018-08-25T08:13:12.111Z,99.60
2018-08-25T08:15:40.319Z,99.40
2018-08-25T08:18:08.509Z,99.20
2018-08-25T08:20:36.718Z,99.20
2018-08-25T08:23:04.925Z,99.20
2018-08-25T08:25:33.103Z,99.20
2018-08-25T08:28:01.409Z,99.00
2018-08-25T08:30:29.671Z,98.80
2018-08-25T08:32:57.885Z,99.10
2018-08-25T08:35:26.073Z,99.10
2018-08-25T08:37:54.307Z,98.80
2018-08-25T08:40:22.521Z,98.60
2018-08-25T08:42:50.717Z,98.10
2018-08-25T08:45:18.958Z,98.10
2018-08-25T08:47:47.135Z,97.80
2018-08-25T08:50:15.350Z,97.60
2018-08-25T08:52:43.547Z,97.90
2018-08-25T08:55:11.764Z,98.20
2018-08-25T08:57:39.994Z,97.90
2018-08-25T09:00:08.322Z,97.50
2018-08-25T09:02:36.577Z,96.00
2018-08-25T09:05:05.074Z,93.90
2018-08-25T09:07:33.296Z,91.70
2018-08-25T09:10:01.481Z,90.90
2018-08-25T09:12:29.674Z,91.00
2018-08-25T09:14:57.871Z,90.10
2018-08-25T09:17:26.085Z,90.70
2018-08-25T09:19:54.304Z,88.40
2018-08-25T09:22:22.522Z,86.90
2018-08-25T09:24:50.733Z,84.30
2018-08-25T09:27:18.980Z,83.20
2018-08-25T09:29:47.251Z,81.70
2018-08-25T09:32:15.482Z,80.30
2018-08-25T09:34:43.671Z,79.10
2018-08-25T09:37:11.891Z,73.00
2018-08-25T09:39:40.149Z,71.40
2018-08-25T09:42:08.310Z,70.30
2018-08-25T09:44:36.545Z,67.80
2018-08-25T09:47:04.905Z,66.40
2018-08-25T09:49:33.002Z,64.50
2018-08-25T09:52:01.245Z,64.40
2018-08-25T09:54:29.428Z,63.70
2018-08-25T09:56:57.756Z,63.20
2018-08-25T09:59:25.974Z,62.70
2018-08-25T10:01:59.686Z,64.00
2018-08-25T10:04:28.355Z,62.80
2018-08-25T10:06:56.578Z,62.90
2018-08-25T10:09:24.814Z,63.60
2018-08-25T10:11:53.004Z,62.60
2018-08-25T10:14:21.272Z,62.10
2018-08-25T10:16:49.526Z,63.80
2018-08-25T10:19:17.736Z,63.60
2018-08-25T10:21:45.985Z,59.60
2018-08-25T10:24:14.209Z,58.00
2018-08-25T10:26:42.442Z,56.00
2018-08-25T10:29:11.012Z,52.90
2018-08-25T10:31:39.141Z,50.80
2018-08-25T10:34:07.412Z,48.90
2018-08-25T10:36:35.648Z,46.30
2018-08-25T10:39:05.728Z,43.70
2018-08-25T10:41:33.989Z,42.70
2018-08-25T10:44:02.236Z,40.70
2018-08-25T10:46:31.322Z,41.00
2018-08-25T10:48:59.522Z,38.90
2018-08-25T10:51:27.728Z,37.10
2018-08-25T10:53:55.987Z,36.00
2018-08-25T10:56:24.132Z,36.50
2018-08-25T10:58:52.322Z,37.70
2018-08-25T11:01:23.461Z,38.80
2018-08-25T11:03:51.676Z,39.30
2018-08-25T11:06:19.894Z,38.90
2018-08-25T11:08:48.199Z,38.10
2018-08-25T11:11:16.480Z,37.50
2018-08-25T11:13:44.648Z,38.00
2018-08-25T11:16:12.868Z,38.60
2018-08-25T11:18:41.206Z,39.30
2018-08-25T11:21:09.412Z,38.80
2018-08-25T11:23:37.649Z,39.70
2018-08-25T11:26:05.856Z,39.50
2018-08-25T11:28:34.080Z,38.90
2018-08-25T11:31:02.275Z,37.90
2018-08-25T11:33:30.463Z,38.50
2018-08-25T11:35:58.677Z,36.10
2018-08-25T11:38:26.992Z,36.10
2018-08-25T11:40:55.223Z,36.90
2018-08-25T11:43:23.404Z,36.10
2018-08-25T11:45:51.607Z,35.10
2018-08-25T11:48:19.923Z,34.90
2018-08-25T11:50:48.123Z,35.10
2018-08-25T11:53:16.318Z,36.60
2018-08-25T11:55:44.530Z,37.80
2018-08-25T11:58:12.754Z,39.70
2018-08-25T12:00:40.968Z,38.40
2018-08-25T12:03:09.174Z,36.20
2018-08-25T12:05:37.352Z,34.70
2018-08-25T12:08:05.642Z,33.90
2018-08-25T12:10:33.852Z,34.00
2018-08-25T12:13:02.065Z,33.50
2018-08-25T12:15:30.268Z,32.80
2018-08-25T12:17:58.632Z,32.70
2018-08-25T12:20:26.996Z,32.90
2018-08-25T12:22:55.186Z,33.90
2018-08-25T12:25:23.420Z,34.90
2018-08-25T12:27:51.682Z,36.10
2018-08-25T12:30:19.883Z,37.20
2018-08-25T12:32:48.074Z,37.40
2018-08-25T12:35:16.296Z,38.30
2018-08-25T12:37:44.516Z,37.90
2018-08-25T12:40:12.768Z,37.50
2018-08-25T12:42:40.973Z,35.80
2018-08-25T12:45:09.191Z,35.00
2018-08-25T12:47:37.438Z,34.90
2018-08-25T12:50:05.706Z,35.60
2018-08-25T12:52:33.932Z,36.20
2018-08-25T12:55:02.139Z,36.60
2018-08-25T12:57:30.416Z,36.80
2018-08-25T12:59:58.643Z,36.80
2018-08-25T13:02:27.125Z,37.00
2018-08-25T13:04:55.324Z,37.90
2018-08-25T13:07:23.600Z,38.90
2018-08-25T13:09:51.787Z,39.80
2018-08-25T13:12:20.007Z,39.60
2018-08-25T13:14:48.331Z,39.70
2018-08-25T13:17:16.406Z,39.30
2018-08-25T13:19:44.630Z,39.90
2018-08-25T13:22:12.813Z,40.20
2018-08-25T13:24:41.083Z,38.80
2018-08-25T13:27:09.289Z,38.80
2018-08-25T13:29:37.494Z,39.10
2018-08-25T13:32:05.713Z,38.60
2018-08-25T13:34:33.871Z,38.20
2018-08-25T13:37:02.107Z,39.00
2018-08-25T13:39:30.308Z,39.30
2018-08-25T13:41:58.535Z,38.80
2018-08-25T13:44:26.706Z,37.30
2018-08-25T13:46:54.915Z,36.10
2018-08-25T13:49:23.177Z,35.90
2018-08-25T13:51:51.363Z,36.60
2018-08-25T13:54:19.579Z,37.30
2018-08-25T13:56:47.811Z,39.10
2018-08-25T13:59:16.003Z,39.40
2018-08-25T14:01:44.191Z,40.30
2018-08-25T14:04:12.391Z,40.60
2018-08-25T14:06:40.617Z,40.50
2018-08-25T14:09:08.921Z,38.80
2018-08-25T14:11:37.271Z,38.50
2018-08-25T14:14:05.743Z,37.80
2018-08-25T14:16:33.958Z,37.40
2018-08-25T14:19:02.574Z,36.90
2018-08-25T14:21:30.749Z,37.90
2018-08-25T14:23:58.963Z,37.70
2018-08-25T14:26:27.152Z,37.30
2018-08-25T14:28:55.492Z,36.50
2018-08-25T14:31:23.910Z,34.80
2018-08-25T14:33:52.091Z,34.40
2018-08-25T14:36:20.303Z,35.20
2018-08-25T14:38:48.539Z,35.70
2018-08-25T14:41:16.730Z,36.50
2018-08-25T14:43:44.938Z,36.10
2018-08-25T14:46:13.201Z,35.70
2018-08-25T14:48:41.381Z,36.10
2018-08-25T14:51:09.571Z,35.60
2018-08-25T14:53:38.073Z,36.30
2018-08-25T14:56:06.254Z,37.10
2018-08-25T14:58:34.534Z,37.20
2018-08-25T15:01:02.718Z,37.60
2018-08-25T15:03:30.930Z,37.30
2018-08-25T15:05:59.171Z,37.80
2018-08-25T15:08:27.453Z,39.00
2018-08-25T15:10:55.641Z,39.20
2018-08-25T15:13:23.991Z,39.00
2018-08-25T15:15:52.024Z,39.10
2018-08-25T15:18:20.239Z,38.40
2018-08-25T15:20:48.452Z,38.00
2018-08-25T15:23:16.647Z,37.20
2018-08-25T15:25:44.865Z,37.10
2018-08-25T15:28:13.126Z,36.50
2018-08-25T15:30:41.335Z,37.50
2018-08-25T15:33:09.523Z,37.80
2018-08-25T15:35:37.726Z,38.10
2018-08-25T15:38:05.991Z,36.70
2018-08-25T15:40:34.180Z,36.10
2018-08-25T15:43:02.387Z,36.50
2018-08-25T15:45:30.608Z,35.80
2018-08-25T15:47:58.994Z,35.80
2018-08-25T15:50:27.369Z,36.10
2018-08-25T15:52:55.626Z,36.00
2018-08-25T15:55:23.792Z,36.60
2018-08-25T15:57:52.107Z,37.20
2018-08-25T16:00:20.264Z,37.40
2018-08-25T16:02:48.480Z,38.30
2018-08-25T16:05:16.690Z,38.70
2018-08-25T16:07:44.873Z,39.00
2018-08-25T16:10:13.152Z,39.10
2018-08-25T16:12:41.358Z,39.50
2018-08-25T16:15:09.585Z,40.10
2018-08-25T16:17:37.867Z,39.70
2018-08-25T16:20:06.328Z,39.80
2018-08-25T16:22:34.360Z,38.70
2018-08-25T16:25:02.549Z,39.20
2018-08-25T16:27:30.775Z,38.60
2018-08-25T16:29:58.981Z,38.30
2018-08-25T16:32:27.176Z,38.10
2018-08-25T16:34:55.366Z,38.90
2018-08-25T16:37:23.576Z,39.00
2018-08-25T16:39:53.024Z,39.30
2018-08-25T16:42:21.209Z,38.90
2018-08-25T16:44:49.441Z,38.30
2018-08-25T16:47:17.622Z,37.70
2018-08-25T16:49:45.852Z,37.30
2018-08-25T16:52:14.026Z,37.20
2018-08-25T16:54:42.406Z,37.30
2018-08-25T16:57:10.684Z,37.80
2018-08-25T16:59:39.172Z,38.90
2018-08-25T17:02:07.732Z,40.20
2018-08-25T17:04:35.892Z,40.90
2018-08-25T17:07:04.107Z,41.40
2018-08-25T17:09:32.301Z,41.70
2018-08-25T17:12:00.526Z,42.20
2018-08-25T17:14:28.710Z,42.30
2018-08-25T17:16:56.926Z,43.90
2018-08-25T17:19:25.178Z,43.40
2018-08-25T17:21:53.373Z,43.00
2018-08-25T17:24:21.590Z,43.40
2018-08-25T17:26:49.857Z,43.20
2018-08-25T17:29:17.995Z,43.10
2018-08-25T17:31:46.219Z,43.10
2018-08-25T17:34:14.424Z,43.10
2018-08-25T17:36:42.884Z,43.30
2018-08-25T17:39:11.708Z,43.30
2018-08-25T17:41:40.214Z,43.00
2018-08-25T17:44:08.788Z,43.20
2018-08-25T17:46:37.004Z,43.30
2018-08-25T17:49:05.560Z,43.30
2018-08-25T17:51:33.803Z,43.50
2018-08-25T17:54:02.057Z,43.80
2018-08-25T17:56:30.252Z,44.00
2018-08-25T17:58:58.537Z,44.30
2018-08-25T18:01:26.735Z,44.30
2018-08-25T18:03:55.012Z,44.60
2018-08-25T18:06:23.186Z,44.60
2018-08-25T18:08:51.390Z,44.90
2018-08-25T18:11:19.622Z,45.00
2018-08-25T18:13:47.839Z,47.30
2018-08-25T18:16:16.056Z,48.80
2018-08-25T18:18:44.236Z,50.20
2018-08-25T18:21:12.712Z,51.70
2018-08-25T18:23:41.384Z,52.40
2018-08-25T18:26:09.931Z,52.70
2018-08-25T18:28:38.132Z,53.40
2018-08-25T18:31:06.327Z,53.90
2018-08-25T18:33:34.536Z,54.40
2018-08-25T18:36:02.744Z,54.70
2018-08-25T18:38:30.948Z,54.90
2018-08-25T18:40:59.136Z,55.30
2018-08-25T18:43:27.364Z,55.50
2018-08-25T18:45:55.572Z,55.70
2018-08-25T18:48:23.885Z,55.90
2018-08-25T18:50:52.036Z,56.00
2018-08-25T18:53:20.256Z,56.20
2018-08-25T18:55:48.492Z,56.40
2018-08-25T18:58:17.218Z,56.60
2018-08-25T19:00:45.445Z,56.90
2018-08-25T19:03:14.415Z,57.10
2018-08-25T19:05:42.632Z,57.30
2018-08-25T19:08:10.909Z,57.50
2018-08-25T19:10:39.101Z,57.70
2018-08-25T19:13:07.315Z,57.90
2018-08-25T19:15:35.494Z,57.90
2018-08-25T19:18:03.743Z,58.30
2018-08-25T19:20:31.941Z,58.60
2018-08-25T19:23:00.132Z,58.80
2018-08-25T19:25:28.363Z,59.00
2018-08-25T19:27:56.753Z,59.10
2018-08-25T19:30:24.923Z,59.30
2018-08-25T19:32:53.123Z,59.40
2018-08-25T19:35:21.380Z,59.70
2018-08-25T19:37:49.573Z,59.90
2018-08-25T19:40:17.758Z,60.00
2018-08-25T19:42:45.969Z,60.40
2018-08-25T19:45:14.167Z,60.70
2018-08-25T19:47:42.413Z,61.00
2018-08-25T19:50:10.622Z,61.30
2018-08-25T19:52:38.811Z,61.90
2018-08-25T19:55:07.039Z,62.70
2018-08-25T19:57:35.241Z,63.10
2018-08-25T20:00:03.492Z,63.30
2018-08-25T20:02:31.704Z,64.00
2018-08-25T20:04:59.939Z,64.30
2018-08-25T20:07:28.117Z,64.60
2018-08-25T20:09:56.701Z,65.40
2018-08-25T20:12:24.891Z,65.90
2018-08-25T20:14:53.405Z,66.50
2018-08-25T20:17:21.635Z,67.20
2018-08-25T20:19:49.875Z,67.50
2018-08-25T20:22:18.083Z,68.00
2018-08-25T20:24:46.313Z,68.70
2018-08-25T20:27:14.517Z,68.80
2018-08-25T20:29:42.703Z,69.20
2018-08-25T20:32:10.922Z,69.50
2018-08-25T20:34:39.113Z,70.00
2018-08-25T20:37:07.331Z,70.50
2018-08-25T20:39:35.597Z,70.70
2018-08-25T20:42:03.897Z,71.10
2018-08-25T20:44:32.082Z,71.50
2018-08-25T20:47:00.271Z,71.80
2018-08-25T20:49:28.497Z,72.60
2018-08-25T20:51:56.706Z,73.10
2018-08-25T20:54:24.910Z,73.70
2018-08-25T20:56:53.138Z,74.60
2018-08-25T20:59:21.335Z,75.10
2018-08-25T21:01:49.552Z,75.30
2018-08-25T21:04:17.762Z,75.70
2018-08-25T21:06:46.236Z,76.10
2018-08-25T21:09:14.371Z,76.30
2018-08-25T21:11:42.553Z,76.60
2018-08-25T21:14:10.758Z,76.70
2018-08-25T21:16:38.940Z,77.40
2018-08-25T21:19:07.226Z,77.60
2018-08-25T21:21:35.983Z,78.10
2018-08-25T21:24:04.165Z,78.20
2018-08-25T21:26:32.395Z,78.60
2018-08-25T21:29:00.646Z,78.90
2018-08-25T21:31:28.899Z,79.10
2018-08-25T21:33:57.182Z,79.40
2018-08-25T21:36:25.369Z,79.90
2018-08-25T21:38:53.942Z,80.10
2018-08-25T21:41:22.189Z,80.50
2018-08-25T21:43:50.375Z,80.60
2018-08-25T21:46:18.611Z,81.00
2018-08-25T21:48:46.896Z,81.70
2018-08-25T21:51:15.141Z,81.90
2018-08-25T21:53:43.331Z,82.40
2018-08-25T21:56:11.545Z,82.90
2018-08-25T21:58:39.833Z,83.20
2018-08-25T22:01:08.160Z,83.70
2018-08-25T22:03:36.309Z,83.90
2018-08-25T22:06:04.522Z,84.80
2018-08-25T22:08:32.787Z,85.00
2018-08-25T22:11:01.072Z,85.20
2018-08-25T22:13:29.211Z,86.10
2018-08-25T22:18:40.121Z,85.50
2018-08-25T22:21:08.423Z,85.40
2018-08-25T22:23:36.585Z,85.70
2018-08-25T22:26:04.804Z,86.40
2018-08-25T22:28:33.056Z,87.00
2018-08-25T22:31:01.275Z,87.30
2018-08-25T22:33:29.471Z,87.70
2018-08-25T22:35:57.729Z,88.00
2018-08-25T22:38:25.977Z,87.90
2018-08-25T22:40:54.174Z,88.00
2018-08-25T22:43:22.403Z,88.40
2018-08-25T22:45:50.606Z,88.60
2018-08-25T22:48:18.880Z,88.30
2018-08-25T22:50:47.068Z,89.00
2018-08-25T22:53:15.256Z,88.90
2018-08-25T22:55:43.456Z,89.10
2018-08-25T22:58:11.714Z,89.20
2018-08-25T23:00:39.918Z,89.10
2018-08-25T23:03:08.102Z,89.30
2018-08-25T23:05:36.318Z,89.60
2018-08-25T23:08:04.592Z,89.40
2018-08-25T23:10:32.838Z,89.60
2018-08-25T23:13:01.034Z,90.00
2018-08-25T23:15:29.234Z,90.10
2018-08-25T23:17:57.641Z,90.20
2018-08-25T23:20:25.859Z,90.10
2018-08-25T23:22:54.052Z,90.10
2018-08-25T23:25:22.256Z,90.20
2018-08-25T23:27:50.560Z,90.20
2018-08-25T23:30:18.809Z,90.20
2018-08-25T23:32:46.960Z,90.10
2018-08-25T23:35:15.158Z,90.10
2018-08-25T23:37:43.374Z,90.00
2018-08-25T23:40:11.572Z,90.20
2018-08-25T23:42:39.760Z,90.00
2018-08-25T23:45:07.972Z,90.00
2018-08-25T23:47:36.182Z,90.00
2018-08-25T23:50:04.434Z,90.00
2018-08-25T23:52:35.040Z,90.00
2018-08-25T23:55:04.460Z,89.80
2018-08-25T23:57:32.716Z,89.60
